Time;durP1;ratioP1;P1;durP2;ratioP2;P2;SDS_P1;SDS_P2;PMS_P1;PMS_P2;Temp;Humidity;BMP_temperature;BMP_pressure;BME280_temperature;BME280_humidity;BME280_pressure;Samples;Min_cycle;Max_cycle;Signal;HPM_P1;HPM_P2
2021/09/15 00:00:11;;;;;;;;;;;;;;;23.60;52.91;101006.16;5018461;28;1601;-47
2021/09/15 00:02:39;;;;;;;;;;;;;;;23.61;53.19;101018.63;5024114;28;1910;-47
2021/09/15 00:05:07;;;;;;;;;;;;;;;23.61;52.51;101002.44;5026888;28;1995;-46
2021/09/15 00:07:33;;;;;;;;;;;;;;;23.63;52.77;100995.91;5018672;28;1832;-46
2021/09/15 00:10:02;;;;;;;;;;;;;;;23.60;52.86;101004.31;5033183;28;1007;-46
2021/09/15 00:12:29;;;;;;;;;;;;;;;23.63;52.89;101014.78;5024288;28;1772;-46
2021/09/15 00:14:55;;;;;;;;;;;;;;;23.59;52.66;101009.84;5020935;28;1472;-46
2021/09/15 00:17:31;;;;;;;;;;;;;;;23.61;52.85;101014.06;5016163;28;1701;-46
2021/09/15 00:19:59;;;;;;;;;;;;;;;23.63;53.01;101005.81;5014090;28;1938;-46
2021/09/15 00:22:30;;;;;;;;;;;;;;;23.61;53.18;101005.13;5022039;28;1911;-46
2021/09/15 00:24:58;;;;;;;;;;;;;;;23.58;53.13;101000.91;5029713;28;1734;-47
2021/09/15 00:27:25;;;;;;;;;;;;;;;23.63;52.64;101000.44;5018351;28;1697;-46
2021/09/15 00:29:59;;;;;;;;;;;;;;;23.58;53.06;100997.38;5022402;28;1779;-46
2021/09/15 00:32:29;;;;;;;;;;;;;;;23.60;52.72;101001.59;5031454;28;2081;-46
2021/09/15 00:34:56;;;;;;;;;;;;;;;23.59;52.57;101001.75;5034913;28;2027;-46
2021/09/15 00:37:25;;;;;;;;;;;;;;;23.60;52.91;100988.09;5030383;28;1754;-46
2021/09/15 00:39:51;;;;;;;;;;;;;;;23.66;52.75;101004.69;5028247;28;1020;-47
2021/09/15 00:42:20;;;;;;;;;;;;;;;23.62;52.60;101010.38;5022753;28;1935;-46
2021/09/15 00:44:49;;;;;;;;;;;;;;;23.63;52.83;101009.41;5030656;28;1552;-46
2021/09/15 00:47:16;;;;;;;;;;;;;;;23.68;52.65;101003.50;5036502;28;1475;-47
2021/09/15 00:49:46;;;;;;;;;;;;;;;23.63;52.53;100998.59;5023782;28;1400;-47
2021/09/15 00:52:13;;;;;;;;;;;;;;;23.62;52.59;101004.16;5023967;28;1604;-46
2021/09/15 00:54:41;;;;;;;;;;;;;;;23.67;52.87;101014.47;5029626;28;2029;-46
2021/09/15 00:57:07;;;;;;;;;;;;;;;23.61;52.81;101002.44;5033194;28;1861;-46
2021/09/15 00:59:34;;;;;;;;;;;;;;;23.61;52.65;101013.25;5033913;28;1435;-46
2021/09/15 01:02:01;;;;;;;;;;;;;;;23.64;52.70;101012.94;5021012;28;1671;-47
2021/09/15 01:04:32;;;;;;;;;;;;;;;23.60;52.98;101011.56;5034294;28;1901;-46
2021/09/15 01:07:04;;;;;;;;;;;;;;;23.63;52.66;101031.00;5017865;28;1819;-46
2021/09/15 01:09:32;;;;;;;;;;;;;;;23.61;52.69;101021.34;5035983;28;1613;-46
2021/09/15 01:11:59;;;;;;;;;;;;;;;23.62;53.31;101023.88;5030443;28;1700;-46
2021/09/15 01:14:46;;;;;;;;;;;;;;;23.59;52.60;101016.09;5024008;28;1850;-46
2021/09/15 01:17:20;;;;;;;;;;;;;;;23.59;52.78;101024.19;5019440;28;2041;-46
2021/09/15 01:19:47;;;;;;;;;;;;;;;23.63;52.70;101027.44;5018219;28;1837;-46
2021/09/15 01:22:19;;;;;;;;;;;;;;;23.60;52.77;101022.34;5034497;28;1626;-47
2021/09/15 01:24:57;;;;;;;;;;;;;;;23.59;52.60;101036.84;5027671;28;1910;-46
2021/09/15 01:27:26;;;;;;;;;;;;;;;23.62;52.68;101034.69;5029892;28;1788;-46
2021/09/15 01:29:54;;;;;;;;;;;;;;;23.62;52.79;101041.94;5030117;28;1613;-47
2021/09/15 01:32:24;;;;;;;;;;;;;;;23.61;52.65;101024.88;5026932;28;1116;-46
2021/09/15 01:34:52;;;;;;;;;;;;;;;23.60;52.90;101033.16;5031456;28;1471;-46
2021/09/15 01:37:22;;;;;;;;;;;;;;;23.60;52.78;101019.66;5027824;28;1621;-46
2021/09/15 01:39:51;;;;;;;;;;;;;;;23.59;52.69;101036.84;5026361;28;1063;-47
2021/09/15 01:42:18;;;;;;;;;;;;;;;23.62;52.59;101036.53;5031022;28;1720;-46
2021/09/15 01:44:48;;;;;;;;;;;;;;;23.58;52.65;101037.88;5027198;28;1902;-46
2021/09/15 01:47:15;;;;;;;;;;;;;;;23.59;52.23;101034.16;5031833;28;1917;-46
2021/09/15 01:49:49;;;;;;;;;;;;;;;23.60;52.51;101035.84;5022729;28;1769;-47
2021/09/15 01:52:17;;;;;;;;;;;;;;;23.62;52.67;101037.38;5033253;28;1936;-46
2021/09/15 01:54:49;;;;;;;;;;;;;;;23.60;52.50;101038.56;5021631;28;1621;-46
2021/09/15 01:57:37;;;;;;;;;;;;;;;23.58;52.63;101024.38;5021301;28;1731;-47
2021/09/15 02:02:52;;;;;;;;;;;;;;;23.61;52.39;101045.63;5089897;22;1906;-46
2021/09/15 02:05:22;;;;;;;;;;;;;;;23.62;52.63;101045.47;5053555;28;1891;-46
2021/09/15 02:10:35;;;;;;;;;;;;;;;23.61;52.59;101040.25;5052454;28;2379;-46
2021/09/15 02:13:01;;;;;;;;;;;;;;;23.65;52.41;101052.41;5054019;28;1753;-46
2021/09/15 02:15:30;;;;;;;;;;;;;;;23.62;52.42;101034.69;5052875;28;2168;-46
2021/09/15 02:18:00;;;;;;;;;;;;;;;23.59;52.31;101037.69;5053387;28;1578;-46
2021/09/15 02:20:26;;;;;;;;;;;;;;;23.63;52.54;101049.03;5053337;28;1479;-46
2021/09/15 02:25:36;;;;;;;;;;;;;;;23.61;52.20;101019.47;5053469;28;2175;-47
2021/09/15 02:28:06;;;;;;;;;;;;;;;23.61;52.31;101042.94;5046254;28;1620;-48
2021/09/15 02:33:16;;;;;;;;;;;;;;;23.61;52.00;101035.66;5046795;28;1632;-46
2021/09/15 02:38:24;;;;;;;;;;;;;;;23.61;52.22;101026.72;5049604;28;1595;-46
2021/09/15 02:41:04;;;;;;;;;;;;;;;23.62;52.42;101036.53;5041215;28;1325;-47
2021/09/15 02:43:32;;;;;;;;;;;;;;;23.66;52.05;101042.47;5040999;28;1910;-47
2021/09/15 02:46:08;;;;;;;;;;;;;;;23.63;52.33;101049.88;5044338;28;1279;-47
2021/09/15 02:48:50;;;;;;;;;;;;;;;23.63;52.33;101049.03;5046511;28;1982;-46
2021/09/15 02:51:19;;;;;;;;;;;;;;;23.64;52.33;101058.81;5044226;28;1940;-46
2021/09/15 02:53:48;;;;;;;;;;;;;;;23.66;52.17;101059.50;5047406;28;2021;-46
2021/09/15 02:56:31;;;;;;;;;;;;;;;23.65;52.06;101057.81;5048544;28;1295;-47
2021/09/15 02:59:04;;;;;;;;;;;;;;;23.66;52.27;101058.69;5046848;28;1485;-47
2021/09/15 03:01:32;;;;;;;;;;;;;;;23.63;52.01;101058.00;5042484;28;1590;-47
2021/09/15 03:04:00;;;;;;;;;;;;;;;23.64;51.86;101045.34;5042961;28;1978;-46
2021/09/15 03:06:28;;;;;;;;;;;;;;;23.65;51.79;101060.50;5043453;28;1441;-47
2021/09/15 03:08:55;;;;;;;;;;;;;;;23.64;51.92;101061.53;5047485;28;1740;-47
2021/09/15 03:11:23;;;;;;;;;;;;;;;23.61;51.91;101061.84;5037858;28;1617;-46
2021/09/15 03:13:49;;;;;;;;;;;;;;;23.62;51.76;101067.09;5052266;28;1868;-46
2021/09/15 03:16:33;;;;;;;;;;;;;;;23.70;51.88;101079.78;5051806;28;1793;-47
2021/09/15 03:19:01;;;;;;;;;;;;;;;23.61;51.77;101062.66;5052600;28;1075;-46
2021/09/15 03:21:28;;;;;;;;;;;;;;;23.62;51.79;101066.25;5053873;28;1441;-47
2021/09/15 03:23:55;;;;;;;;;;;;;;;23.64;51.97;101056.13;5052028;28;2158;-46
2021/09/15 03:26:23;;;;;;;;;;;;;;;23.65;51.61;101065.91;5051266;28;1477;-46
2021/09/15 03:28:50;;;;;;;;;;;;;;;23.62;51.92;101068.94;5051390;28;1644;-46
2021/09/15 03:31:18;;;;;;;;;;;;;;;23.66;51.75;101070.31;5064101;28;1764;-47
2021/09/15 03:33:45;;;;;;;;;;;;;;;23.66;51.56;101075.72;5066598;28;1551;-47
2021/09/15 03:36:15;;;;;;;;;;;;;;;23.65;51.68;101075.88;5051276;28;1694;-47
2021/09/15 03:38:47;;;;;;;;;;;;;;;23.62;51.56;101091.38;5052317;28;1633;-46
2021/09/15 03:41:14;;;;;;;;;;;;;;;23.63;51.64;101098.50;5045762;28;1582;-47
2021/09/15 03:43:41;;;;;;;;;;;;;;;23.62;51.78;101106.75;5051154;28;1914;-47
2021/09/15 03:46:11;;;;;;;;;;;;;;;23.65;51.54;101101.00;5052643;28;1038;-47
2021/09/15 03:48:40;;;;;;;;;;;;;;;23.63;51.83;101097.63;5034901;28;10850;-46
2021/09/15 03:51:09;;;;;;;;;;;;;;;23.63;52.44;101092.22;5051402;28;1840;-47
2021/09/15 03:53:41;;;;;;;;;;;;;;;23.60;52.64;101097.94;5049598;28;1962;-46
2021/09/15 03:56:11;;;;;;;;;;;;;;;23.55;52.91;101098.41;5047777;28;1637;-46
2021/09/15 03:58:39;;;;;;;;;;;;;;;23.57;52.81;101096.38;5051427;28;1929;-46
2021/09/15 04:01:10;;;;;;;;;;;;;;;23.60;52.79;101096.09;5046135;28;1887;-46
2021/09/15 04:03:37;;;;;;;;;;;;;;;23.54;53.54;101098.59;5049639;28;1906;-47
2021/09/15 04:06:05;;;;;;;;;;;;;;;23.54;53.23;101109.38;5054243;28;2167;-46
2021/09/15 04:08:32;;;;;;;;;;;;;;;23.63;52.90;101108.41;5055414;28;1577;-46
2021/09/15 04:11:03;;;;;;;;;;;;;;;23.58;52.78;101099.97;5055658;28;1964;-46
2021/09/15 04:13:30;;;;;;;;;;;;;;;23.62;52.61;101106.75;5053727;28;995;-46
2021/09/15 04:15:58;;;;;;;;;;;;;;;23.71;52.41;101103.06;5056750;28;1868;-46
2021/09/15 04:18:27;;;;;;;;;;;;;;;23.70;52.61;101109.50;5053265;28;1882;-48
2021/09/15 04:20:54;;;;;;;;;;;;;;;23.69;53.36;101115.88;5056195;28;1684;-47
2021/09/15 04:23:27;;;;;;;;;;;;;;;23.73;53.47;101124.53;5054453;28;1909;-47
2021/09/15 04:31:40;;;;;;;;;;;;;;;23.66;54.09;101110.81;5054924;28;1832;-46
2021/09/15 04:34:09;;;;;;;;;;;;;;;23.62;55.56;101114.84;5054789;28;1646;-47
2021/09/15 04:36:36;;;;;;;;;;;;;;;23.61;52.91;101115.81;5045066;28;1518;-47
2021/09/15 04:39:03;;;;;;;;;;;;;;;23.62;52.78;101112.13;5054662;28;1747;-47
2021/09/15 04:41:29;;;;;;;;;;;;;;;23.59;51.57;101117.84;5054281;28;1480;-48
2021/09/15 04:44:00;;;;;;;;;;;;;;;23.65;50.13;101130.69;5054045;28;1909;-46
2021/09/15 04:46:29;;;;;;;;;;;;;;;23.70;49.46;101104.09;5054870;28;1731;-47
2021/09/15 04:48:57;;;;;;;;;;;;;;;23.56;49.76;101123.56;5040667;28;1255;-47
2021/09/15 04:51:28;;;;;;;;;;;;;;;23.58;51.38;101122.41;5052494;28;1880;-47
2021/09/15 04:53:55;;;;;;;;;;;;;;;23.48;51.03;101120.81;5041888;28;2110;-47
2021/09/15 04:56:24;;;;;;;;;;;;;;;23.51;50.25;101117.78;5054679;28;2226;-47
2021/09/15 04:58:59;;;;;;;;;;;;;;;23.50;49.67;101113.41;5054434;28;1769;-47
2021/09/15 05:01:30;;;;;;;;;;;;;;;23.57;49.89;101125.25;5053108;28;1764;-47
2021/09/15 05:03:59;;;;;;;;;;;;;;;23.54;49.30;101104.81;5040175;28;1976;-47
2021/09/15 05:06:28;;;;;;;;;;;;;;;23.52;49.66;101127.59;5056444;28;2177;-47
2021/09/15 05:08:58;;;;;;;;;;;;;;;23.52;49.72;101128.44;5054469;28;1794;-47
2021/09/15 05:11:26;;;;;;;;;;;;;;;23.51;49.27;101112.38;5053896;28;1872;-47
2021/09/15 05:13:52;;;;;;;;;;;;;;;23.54;49.55;101131.81;5054432;28;1738;-47
2021/09/15 05:16:20;;;;;;;;;;;;;;;23.50;49.27;101132.28;5047094;28;1750;-47
2021/09/15 05:18:52;;;;;;;;;;;;;;;23.55;49.02;101122.69;5047798;28;1019;-47
2021/09/15 05:21:20;;;;;;;;;;;;;;;23.55;49.32;101127.25;5052468;28;1506;-47
2021/09/15 05:23:54;;;;;;;;;;;;;;;23.53;50.97;101126.56;5043189;28;1997;-46
2021/09/15 05:26:21;;;;;;;;;;;;;;;23.63;50.78;101124.63;5050742;28;1998;-46
2021/09/15 05:28:51;;;;;;;;;;;;;;;23.68;50.21;101127.69;5054165;28;1778;-46
2021/09/15 05:31:18;;;;;;;;;;;;;;;23.71;50.00;101121.97;5057289;28;1738;-48
2021/09/15 05:33:44;;;;;;;;;;;;;;;23.74;50.04;101127.06;5051558;28;1656;-46
2021/09/15 05:36:17;;;;;;;;;;;;;;;23.75;49.80;101144.13;5068640;28;2136;-47
2021/09/15 05:38:43;;;;;;;;;;;;;;;23.95;49.52;101136.69;5049092;28;1966;-46
2021/09/15 05:41:11;;;;;;;;;;;;;;;23.92;49.58;101135.16;5038737;28;1658;-47
2021/09/15 05:43:38;;;;;;;;;;;;;;;23.97;49.50;101121.16;5053491;28;1869;-46
2021/09/15 05:46:05;;;;;;;;;;;;;;;24.03;49.57;101134.03;5037627;28;1906;-47
2021/09/15 05:48:35;;;;;;;;;;;;;;;24.01;49.80;101123.41;5062331;28;1580;-46
2021/09/15 05:51:01;;;;;;;;;;;;;;;24.13;50.16;101137.47;5050608;28;1680;-47
2021/09/15 05:53:32;;;;;;;;;;;;;;;24.07;50.71;101129.16;5043258;28;1949;-46
2021/09/15 05:56:00;;;;;;;;;;;;;;;24.15;50.25;101130.06;5051320;28;1509;-47
2021/09/15 05:58:30;;;;;;;;;;;;;;;24.15;49.96;101124.66;5052649;28;1785;-46
2021/09/15 06:00:59;;;;;;;;;;;;;;;24.13;50.22;101142.03;5041581;28;1576;-46
2021/09/15 06:03:35;;;;;;;;;;;;;;;24.17;50.15;101132.59;5047917;28;1608;-47
2021/09/15 06:06:04;;;;;;;;;;;;;;;24.31;50.22;101129.31;5041257;28;1906;-47
2021/09/15 06:08:37;;;;;;;;;;;;;;;24.22;49.92;101136.50;5052442;28;2141;-47
2021/09/15 06:11:06;;;;;;;;;;;;;;;24.28;50.15;101132.31;5052873;28;1529;-46
2021/09/15 06:13:32;;;;;;;;;;;;;;;24.29;50.16;101138.56;5045906;28;1515;-47
2021/09/15 06:16:07;;;;;;;;;;;;;;;24.45;50.06;101133.22;5054156;28;1505;-46
2021/09/15 06:18:34;;;;;;;;;;;;;;;24.40;50.59;101136.41;5054163;28;1877;-46
2021/09/15 06:21:01;;;;;;;;;;;;;;;24.39;50.26;101142.84;5051806;28;1661;-49
2021/09/15 06:23:30;;;;;;;;;;;;;;;24.37;50.81;101150.28;5048869;28;1750;-46
2021/09/15 06:26:02;;;;;;;;;;;;;;;24.36;51.39;101137.75;5052450;28;2013;-46
2021/09/15 06:28:31;;;;;;;;;;;;;;;24.47;50.59;101146.56;5050735;28;1705;-46
2021/09/15 06:30:58;;;;;;;;;;;;;;;24.37;50.97;101138.59;5049333;28;2238;-46
2021/09/15 06:33:24;;;;;;;;;;;;;;;24.32;50.20;101140.94;5051792;28;1980;-46
2021/09/15 06:35:57;;;;;;;;;;;;;;;24.26;49.94;101139.72;5051387;28;1700;-47
2021/09/15 06:38:24;;;;;;;;;;;;;;;24.24;50.16;101157.13;5046642;28;1734;-47
2021/09/15 06:40:51;;;;;;;;;;;;;;;23.94;50.92;101148.50;5049270;28;1658;-47
2021/09/15 06:43:26;;;;;;;;;;;;;;;23.70;51.10;101151.84;5052776;28;1335;-46
2021/09/15 06:45:56;;;;;;;;;;;;;;;23.66;51.25;101140.50;5045552;28;1914;-46
2021/09/15 06:48:30;;;;;;;;;;;;;;;23.94;50.85;101143.09;5052069;28;1775;-46
2021/09/15 06:51:00;;;;;;;;;;;;;;;24.11;51.11;101133.22;5051360;28;1824;-47
2021/09/15 06:53:26;;;;;;;;;;;;;;;24.18;51.14;101151.34;5059025;28;1557;-46
2021/09/15 06:55:54;;;;;;;;;;;;;;;24.15;52.33;101145.41;5048589;28;1722;-46
2021/09/15 06:58:26;;;;;;;;;;;;;;;24.15;52.42;101170.59;5045207;28;1459;-47
2021/09/15 07:00:56;;;;;;;;;;;;;;;24.14;52.20;101152.69;5045680;28;1632;-46
2021/09/15 07:03:24;;;;;;;;;;;;;;;24.15;52.19;101151.69;5032890;28;1445;-46
2021/09/15 07:05:54;;;;;;;;;;;;;;;24.14;53.22;101154.53;5047118;28;1980;-47
2021/09/15 07:08:22;;;;;;;;;;;;;;;24.25;53.26;101156.09;5052170;28;1489;-47
2021/09/15 07:10:51;;;;;;;;;;;;;;;24.29;52.91;101154.78;5051492;28;1655;-46
2021/09/15 07:13:19;;;;;;;;;;;;;;;24.38;51.88;101157.34;5052837;28;1020;-46
2021/09/15 07:15:53;;;;;;;;;;;;;;;24.42;50.97;101153.31;5047346;28;2127;-46
2021/09/15 07:18:20;;;;;;;;;;;;;;;24.50;51.56;101163.34;5050195;28;1701;-48
2021/09/15 07:20:53;;;;;;;;;;;;;;;24.55;50.82;101157.44;5047582;28;1628;-46
2021/09/15 07:23:30;;;;;;;;;;;;;;;24.49;50.43;101147.25;5051981;28;1685;-47
2021/09/15 07:26:00;;;;;;;;;;;;;;;24.60;50.50;101155.13;5051176;28;1969;-47
2021/09/15 07:28:27;;;;;;;;;;;;;;;24.68;50.18;101157.00;5051292;28;1622;-46
2021/09/15 07:30:59;;;;;;;;;;;;;;;24.65;50.34;101146.50;5051343;28;1654;-46
2021/09/15 07:33:32;;;;;;;;;;;;;;;24.63;50.15;101153.94;5033393;28;1789;-49
2021/09/15 07:35:59;;;;;;;;;;;;;;;24.53;50.47;101154.94;5039814;28;1652;-48
2021/09/15 07:38:27;;;;;;;;;;;;;;;24.50;49.11;101162.47;5042308;28;1607;-47
2021/09/15 07:40:56;;;;;;;;;;;;;;;24.37;50.50;101154.81;5043259;28;1509;-48
2021/09/15 07:43:22;;;;;;;;;;;;;;;24.29;50.62;101154.78;5049384;28;1573;-47
2021/09/15 07:45:50;;;;;;;;;;;;;;;24.17;50.67;101155.06;5046362;28;1995;-47
2021/09/15 07:48:22;;;;;;;;;;;;;;;24.29;50.89;101155.66;5051161;28;1866;-46
2021/09/15 07:50:52;;;;;;;;;;;;;;;24.49;50.11;101149.97;5042012;28;1849;-47
2021/09/15 07:53:28;;;;;;;;;;;;;;;24.34;50.91;101145.19;5048228;28;1373;-47
2021/09/15 07:55:57;;;;;;;;;;;;;;;24.55;50.39;101147.50;5052453;28;999;-46
2021/09/15 07:58:27;;;;;;;;;;;;;;;24.55;50.10;101139.41;5051110;28;1705;-47
2021/09/15 08:00:55;;;;;;;;;;;;;;;24.37;50.37;101160.22;5051232;28;1753;-47
2021/09/15 08:03:27;;;;;;;;;;;;;;;24.45;50.23;101151.28;5038887;28;1777;-47
2021/09/15 08:05:59;;;;;;;;;;;;;;;24.63;49.60;101148.53;5038194;28;1906;-47
2021/09/15 08:08:29;;;;;;;;;;;;;;;24.70;50.10;101134.19;5044904;28;1881;-46
2021/09/15 08:10:56;;;;;;;;;;;;;;;24.71;50.29;101135.03;5051443;28;1759;-47
2021/09/15 08:13:24;;;;;;;;;;;;;;;24.65;50.00;101136.56;5054031;28;1573;-47
2021/09/15 08:15:53;;;;;;;;;;;;;;;24.53;50.69;101138.72;5041934;28;1881;-47
2021/09/15 08:18:20;;;;;;;;;;;;;;;24.58;51.16;101132.81;5050176;28;1742;-46
2021/09/15 08:20:54;;;;;;;;;;;;;;;24.65;50.44;101124.88;5049793;28;1810;-46
2021/09/15 08:23:22;;;;;;;;;;;;;;;24.80;50.60;101139.47;5047008;28;1661;-47
2021/09/15 08:25:52;;;;;;;;;;;;;;;24.66;50.32;101129.28;5043993;28;1905;-46
2021/09/15 08:28:20;;;;;;;;;;;;;;;24.60;50.36;101123.50;5046621;28;1504;-46
2021/09/15 08:30:48;;;;;;;;;;;;;;;24.64;49.84;101128.59;5049501;28;1682;-50
2021/09/15 08:33:18;;;;;;;;;;;;;;;24.54;49.87;101115.22;5035308;28;1705;-47
2021/09/15 08:35:46;;;;;;;;;;;;;;;24.36;50.46;101112.59;5039858;28;1804;-46
2021/09/15 08:38:15;;;;;;;;;;;;;;;24.57;50.11;101118.44;5050819;28;1844;-46
2021/09/15 08:40:44;;;;;;;;;;;;;;;24.56;49.76;101100.50;5038437;28;1660;-47
2021/09/15 08:43:10;;;;;;;;;;;;;;;24.51;50.18;101112.81;5043933;28;1625;-47
2021/09/15 08:48:21;;;;;;;;;;;;;;;24.47;50.17;101109.59;5049299;28;2393;-47
2021/09/15 08:50:52;;;;;;;;;;;;;;;24.52;50.52;101115.38;5049548;28;1842;-47
2021/09/15 08:53:24;;;;;;;;;;;;;;;24.61;49.92;101114.41;5054998;28;1735;-47
2021/09/15 08:55:54;;;;;;;;;;;;;;;24.78;49.02;101103.63;5055071;28;1814;-46
2021/09/15 08:58:21;;;;;;;;;;;;;;;24.74;49.91;101107.66;5054855;28;1700;-47
2021/09/15 09:00:49;;;;;;;;;;;;;;;24.77;49.72;101097.38;5053560;28;1957;-46
2021/09/15 09:03:17;;;;;;;;;;;;;;;24.69;49.94;101100.06;5055542;28;1438;-47
2021/09/15 09:08:30;;;;;;;;;;;;;;;24.73;50.15;101097.84;5051970;28;2410;-47
2021/09/15 09:10:59;;;;;;;;;;;;;;;24.81;49.85;101103.31;5054320;28;1655;-48
2021/09/15 09:13:26;;;;;;;;;;;;;;;24.77;49.76;101096.50;5055155;28;1458;-46
2021/09/15 09:15:54;;;;;;;;;;;;;;;24.68;49.75;101103.75;5046119;28;1759;-47
2021/09/15 09:18:24;;;;;;;;;;;;;;;24.62;49.73;101093.59;5046490;28;1713;-46
2021/09/15 09:20:52;;;;;;;;;;;;;;;24.58;50.14;101100.34;5043482;28;2033;-47
2021/09/15 09:23:20;;;;;;;;;;;;;;;24.70;49.56;101092.78;5042937;28;1800;-46
2021/09/15 09:25:53;;;;;;;;;;;;;;;24.70;49.83;101095.50;5046371;28;1910;-47
2021/09/15 09:28:33;;;;;;;;;;;;;;;24.57;50.87;101080.59;5046091;28;1650;-47
2021/09/15 09:31:01;;;;;;;;;;;;;;;24.72;50.32;101094.31;5050170;28;2198;-47
2021/09/15 09:33:31;;;;;;;;;;;;;;;24.71;50.19;101072.81;5051468;28;1255;-46
2021/09/15 09:36:09;;;;;;;;;;;;;;;24.94;48.83;101105.50;5045400;28;1676;-46
2021/09/15 09:38:46;;;;;;;;;;;;;;;25.11;49.20;101071.19;5054753;28;1566;-47
2021/09/15 09:41:20;;;;;;;;;;;;;;;24.96;49.63;101084.53;5042213;28;1461;-48
2021/09/15 09:44:10;;;;;;;;;;;;;;;25.09;48.36;101078.63;5053505;28;1690;-47
2021/09/15 09:46:41;;;;;;;;;;;;;;;25.26;48.30;101064.13;5040133;28;1902;-48
2021/09/15 09:49:11;;;;;;;;;;;;;;;25.16;48.34;101066.97;5048619;28;1501;-48
2021/09/15 09:51:46;;;;;;;;;;;;;;;25.13;47.74;101066.47;5050821;28;1481;-46
2021/09/15 09:54:20;;;;;;;;;;;;;;;25.02;48.81;101068.47;5051163;28;1669;-48
2021/09/15 09:56:49;;;;;;;;;;;;;;;25.05;49.02;101072.72;5055043;28;1959;-46
2021/09/15 09:59:26;;;;;;;;;;;;;;;24.92;48.86;101069.66;5049815;28;1570;-47
2021/09/15 10:01:56;;;;;;;;;;;;;;;24.89;48.96;101068.16;5052538;28;1782;-46
2021/09/15 10:04:34;;;;;;;;;;;;;;;25.02;48.80;101063.06;5048035;28;1726;-46
2021/09/15 10:07:02;;;;;;;;;;;;;;;25.01;48.60;101063.25;5048455;28;1906;-48
2021/09/15 10:09:30;;;;;;;;;;;;;;;24.99;49.47;101058.00;5041609;28;1548;-46
2021/09/15 10:12:00;;;;;;;;;;;;;;;25.01;49.45;101064.09;5049719;28;1948;-46
2021/09/15 10:14:27;;;;;;;;;;;;;;;25.12;48.74;101065.59;5060490;28;1996;-46
2021/09/15 10:16:57;;;;;;;;;;;;;;;25.04;49.97;101053.94;5052184;28;1561;-46
2021/09/15 10:19:46;;;;;;;;;;;;;;;25.00;49.73;101053.44;5049675;28;1633;-46
2021/09/15 10:22:13;;;;;;;;;;;;;;;25.07;49.65;101057.16;5045212;28;1687;-46
2021/09/15 10:24:50;;;;;;;;;;;;;;;25.22;49.19;101037.56;5054029;28;1805;-47
2021/09/15 10:27:27;;;;;;;;;;;;;;;25.12;49.64;101046.66;5040782;28;1983;-47
2021/09/15 10:30:08;;;;;;;;;;;;;;;25.12;49.48;101046.66;5048016;28;1950;-47
2021/09/15 10:32:35;;;;;;;;;;;;;;;25.04;49.49;101040.41;5054112;28;1876;-46
2021/09/15 10:35:05;;;;;;;;;;;;;;;25.05;49.76;101042.09;5053970;28;1585;-46
2021/09/15 10:37:54;;;;;;;;;;;;;;;25.07;49.91;101038.22;5052666;28;1828;-47
2021/09/15 10:40:33;;;;;;;;;;;;;;;25.09;50.11;101044.31;5037661;28;1949;-47
2021/09/15 10:43:04;;;;;;;;;;;;;;;25.09;49.44;101041.59;5052426;28;1686;-47
2021/09/15 10:45:31;;;;;;;;;;;;;;;25.05;49.68;101042.09;5049784;28;1975;-47
2021/09/15 10:48:02;;;;;;;;;;;;;;;25.05;49.77;101039.38;5051947;28;1669;-46
2021/09/15 10:50:50;;;;;;;;;;;;;;;25.07;49.98;101026.53;5052416;28;1820;-47
2021/09/15 10:53:18;;;;;;;;;;;;;;;25.12;49.50;101030.44;5051975;28;1841;-47
2021/09/15 10:55:46;;;;;;;;;;;;;;;25.04;50.33;101040.41;5042504;28;1591;-46
2021/09/15 10:58:37;;;;;;;;;;;;;;;25.04;49.80;101016.91;5044653;28;1567;-46
2021/09/15 11:01:05;;;;;;;;;;;;;;;24.99;49.20;101012.00;5054170;28;2036;-46
2021/09/15 11:03:33;;;;;;;;;;;;;;;25.00;50.29;101010.97;5044316;28;1588;-47
2021/09/15 11:06:17;;;;;;;;;;;;;;;24.97;49.54;101005.94;5044608;28;1977;-46
2021/09/15 11:08:52;;;;;;;;;;;;;;;25.15;48.88;101002.19;5043113;28;2009;-46
2021/09/15 11:11:39;;;;;;;;;;;;;;;25.16;48.94;100993.06;5038182;28;1676;-47
2021/09/15 11:14:09;;;;;;;;;;;;;;;25.06;49.18;101000.50;5042480;28;1693;-46
2021/09/15 11:16:41;;;;;;;;;;;;;;;25.02;49.56;101008.94;5040246;28;1684;-47
2021/09/15 11:19:11;;;;;;;;;;;;;;;25.08;49.07;100974.13;5041704;28;1662;-46
2021/09/15 11:21:40;;;;;;;;;;;;;;;25.02;49.54;100971.06;5050967;28;1594;-46
2021/09/15 11:24:14;;;;;;;;;;;;;;;25.04;49.77;100980.91;5050671;28;1481;-46
2021/09/15 11:26:49;;;;;;;;;;;;;;;25.04;50.02;100983.59;5038913;28;1906;-47
2021/09/15 11:29:36;;;;;;;;;;;;;;;25.04;50.19;100979.03;5041429;28;1624;-47
2021/09/15 11:32:05;;;;;;;;;;;;;;;25.08;49.17;100971.41;5052384;28;1741;-47
2021/09/15 11:34:39;;;;;;;;;;;;;;;25.10;49.52;100962.09;5042027;28;1477;-47
2021/09/15 11:37:07;;;;;;;;;;;;;;;25.11;48.94;100965.66;5050137;28;1695;-47
2021/09/15 11:39:34;;;;;;;;;;;;;;;25.06;49.76;100965.34;5049621;28;1741;-47
2021/09/15 11:42:02;;;;;;;;;;;;;;;25.08;49.53;100966.00;5047462;28;2035;-47
2021/09/15 11:44:35;;;;;;;;;;;;;;;25.10;49.54;100961.25;5052893;28;1900;-47
2021/09/15 11:47:02;;;;;;;;;;;;;;;25.17;48.84;100951.47;5044659;28;1934;-46
2021/09/15 11:49:34;;;;;;;;;;;;;;;25.32;48.27;100955.16;5047756;28;1661;-47
2021/09/15 11:52:03;;;;;;;;;;;;;;;25.19;49.42;100968.38;5048602;28;1648;-47
2021/09/15 11:54:30;;;;;;;;;;;;;;;25.13;48.77;100958.22;5046331;28;1955;-46
2021/09/15 11:57:06;;;;;;;;;;;;;;;25.12;49.34;100934.88;5048264;28;1761;-46
2021/09/15 11:59:38;;;;;;;;;;;;;;;25.17;48.82;100924.41;5052096;28;1558;-47
2021/09/15 12:02:06;;;;;;;;;;;;;;;25.12;49.36;100937.59;5051052;28;1842;-47
2021/09/15 12:04:47;;;;;;;;;;;;;;;25.07;49.41;100939.94;5052726;28;1768;-46
2021/09/15 12:07:16;;;;;;;;;;;;;;;25.02;49.38;100933.19;5052177;28;1906;-46
2021/09/15 12:09:45;;;;;;;;;;;;;;;25.13;49.20;100928.47;5053704;28;1062;-46
2021/09/15 12:12:12;;;;;;;;;;;;;;;25.11;49.33;100920.50;5052783;28;1755;-47
2021/09/15 12:14:53;;;;;;;;;;;;;;;25.05;48.92;100932.03;5047901;28;1718;-47
2021/09/15 12:17:20;;;;;;;;;;;;;;;25.05;49.55;100915.78;5053432;28;2030;-46
2021/09/15 12:19:48;;;;;;;;;;;;;;;24.99;49.17;100932.72;5053554;28;1627;-47
2021/09/15 12:22:18;;;;;;;;;;;;;;;24.97;49.68;100916.66;5047979;28;1334;-47
2021/09/15 12:24:57;;;;;;;;;;;;;;;25.06;48.75;100909.34;5052678;28;1726;-46
2021/09/15 12:27:27;;;;;;;;;;;;;;;25.04;48.21;100918.66;5057454;28;1906;-47
2021/09/15 12:30:13;;;;;;;;;;;;;;;25.11;48.03;100922.34;5055384;28;1863;-47
2021/09/15 12:33:00;;;;;;;;;;;;;;;25.24;48.28;100909.16;5055576;28;1706;-46
2021/09/15 12:35:39;;;;;;;;;;;;;;;25.18;48.31;100907.13;5048841;28;1543;-46
2021/09/15 12:38:14;;;;;;;;;;;;;;;24.99;48.09;100921.88;5055462;28;1689;-47
2021/09/15 12:40:41;;;;;;;;;;;;;;;25.05;47.86;100915.78;5048961;28;1609;-46
2021/09/15 12:43:10;;;;;;;;;;;;;;;25.18;47.81;100894.44;5044629;28;1931;-46
2021/09/15 12:45:48;;;;;;;;;;;;;;;25.05;48.20;100906.81;5053145;28;1654;-47
2021/09/15 12:48:15;;;;;;;;;;;;;;;25.05;47.38;100890.56;5055382;28;1901;-46
2021/09/15 12:50:46;;;;;;;;;;;;;;;25.07;46.83;100896.66;5055833;28;1677;-47
2021/09/15 12:53:14;;;;;;;;;;;;;;;25.04;47.95;100891.59;5053783;28;1658;-47
2021/09/15 12:55:42;;;;;;;;;;;;;;;24.94;47.36;100886.38;5056388;28;1922;-47
2021/09/15 12:58:10;;;;;;;;;;;;;;;24.98;47.18;100898.53;5048807;28;1649;-48
2021/09/15 13:00:48;;;;;;;;;;;;;;;25.06;47.39;100884.16;5045097;28;1779;-47
2021/09/15 13:03:16;;;;;;;;;;;;;;;25.08;48.04;100884.81;5055263;28;1452;-47
2021/09/15 13:05:49;;;;;;;;;;;;;;;25.02;47.96;100875.53;5044833;28;1499;-47
2021/09/15 13:08:37;;;;;;;;;;;;;;;25.00;48.76;100875.69;5047840;28;1902;-46
2021/09/15 13:11:05;;;;;;;;;;;;;;;25.00;48.27;100877.56;5056413;28;1564;-46
2021/09/15 13:13:32;;;;;;;;;;;;;;;25.03;48.44;100869.13;5056478;28;1023;-47
2021/09/15 13:16:04;;;;;;;;;;;;;;;24.99;48.89;100867.78;5055895;28;1103;-46
2021/09/15 13:18:33;;;;;;;;;;;;;;;24.96;48.63;100868.94;5055628;28;1775;-46
2021/09/15 13:21:03;;;;;;;;;;;;;;;24.98;48.17;100871.50;5055398;28;1920;-46
2021/09/15 13:23:30;;;;;;;;;;;;;;;24.95;48.24;100866.44;5055397;28;1354;-47
2021/09/15 13:26:09;;;;;;;;;;;;;;;24.96;48.35;100868.94;5055023;28;1392;-46
2021/09/15 13:28:39;;;;;;;;;;;;;;;24.92;48.30;100862.19;5055461;28;1967;-47